Time;durP1;ratioP1;P1;durP2;ratioP2;P2;SDS_P1;SDS_P2;PMS_P1;PMS_P2;Temp;Humidity;BMP_temperature;BMP_pressure;BME280_temperature;BME280_humidity;BME280_pressure;Samples;Min_cycle;Max_cycle;Signal;HPM_P1;HPM_P2
2023/09/20 00:03:11;;;;;;;6.57;2.08;;;;;18.00;100452.00;;;;9986748;29;20229;-85
2023/09/20 00:08:14;;;;;;;4.10;2.45;;;;;18.00;100451.00;;;;9974874;29;20221;-85
2023/09/20 00:13:16;;;;;;;8.48;2.08;;;;;18.00;100454.00;;;;10002569;29;20229;-85
2023/09/20 00:18:19;;;;;;;4.68;2.00;;;;;18.00;100453.00;;;;9969560;29;20229;-85
2023/09/20 00:23:21;;;;;;;7.32;2.47;;;;;18.00;100461.00;;;;9996691;29;20252;-85
2023/09/20 00:28:23;;;;;;;6.10;2.38;;;;;18.00;100466.00;;;;9987143;29;20221;-86
2023/09/20 00:33:27;;;;;;;5.85;2.33;;;;;17.90;100454.00;;;;9976575;29;20214;-85
2023/09/20 00:38:29;;;;;;;7.43;2.42;;;;;17.90;100451.00;;;;9982145;29;20633;-85
2023/09/20 00:43:32;;;;;;;6.35;2.15;;;;;17.90;100442.00;;;;10000412;29;20217;-85
2023/09/20 00:48:34;;;;;;;6.35;2.40;;;;;17.80;100448.00;;;;9985820;29;20218;-86
2023/09/20 00:53:37;;;;;;;5.57;2.10;;;;;17.70;100451.00;;;;9972303;29;20267;-86
2023/09/20 00:58:43;;;;;;;3.90;2.50;;;;;17.60;100448.00;;;;9990667;29;20241;-84
2023/09/20 01:03:46;;;;;;;6.68;2.35;;;;;17.50;100447.00;;;;9978636;29;20216;-80
2023/09/20 01:08:49;;;;;;;5.03;2.22;;;;;17.50;100445.00;;;;9979820;29;20244;-79
2023/09/20 01:13:52;;;;;;;6.78;2.42;;;;;17.50;100431.00;;;;9984196;29;20725;-79
2023/09/20 01:18:54;;;;;;;9.02;3.00;;;;;17.50;100433.00;;;;9963896;29;20255;-80
2023/09/20 01:23:56;;;;;;;8.40;2.70;;;;;17.40;100433.00;;;;10004706;29;20695;-79
2023/09/20 01:28:58;;;;;;;4.80;2.50;;;;;17.30;100425.00;;;;9980890;29;20224;-79
2023/09/20 01:34:00;;;;;;;8.90;2.60;;;;;17.10;100430.00;;;;9978238;29;20218;-79
2023/09/20 01:39:09;;;;;;;3.53;2.15;;;;;17.00;100411.00;;;;9994439;29;20278;-79
2023/09/20 01:44:12;;;;;;;5.00;2.30;;;;;16.90;100409.00;;;;9977177;29;20242;-81
2023/09/20 01:49:15;;;;;;;6.35;2.33;;;;;16.80;100402.00;;;;9988915;29;20221;-79
2023/09/20 01:54:19;;;;;;;6.72;2.60;;;;;16.80;100397.00;;;;9959927;29;20209;-79
2023/09/20 01:59:24;;;;;;;8.38;2.42;;;;;16.80;100398.00;;;;9986742;29;20297;-80
2023/09/20 02:04:26;;;;;;;4.72;2.60;;;;;16.70;100385.00;;;;10010399;29;20221;-79
2023/09/20 02:09:28;;;;;;;6.63;3.05;;;;;16.70;100374.00;;;;9980537;29;20661;-84
2023/09/20 02:14:30;;;;;;;8.02;3.25;;;;;16.60;100365.00;;;;9984036;29;20789;-79
2023/09/20 02:19:34;;;;;;;7.45;2.83;;;;;16.60;100360.00;;;;9971788;29;20229;-79
2023/09/20 02:24:39;;;;;;;7.75;3.20;;;;;16.60;100362.00;;;;9984345;29;20840;-79
2023/09/20 02:29:41;;;;;;;7.75;3.25;;;;;16.60;100364.00;;;;9973092;29;20768;-80
2023/09/20 02:34:44;;;;;;;8.50;3.00;;;;;16.60;100349.00;;;;9967575;29;20214;-79
2023/09/20 02:39:47;;;;;;;8.45;2.80;;;;;16.60;100352.00;;;;9983561;29;20232;-79
2023/09/20 02:44:50;;;;;;;7.28;2.88;;;;;16.60;100352.00;;;;9970163;29;20217;-79
2023/09/20 02:49:52;;;;;;;8.10;3.33;;;;;16.40;100345.00;;;;9980935;29;20876;-79
2023/09/20 02:54:55;;;;;;;6.93;2.92;;;;;16.40;100344.00;;;;9986056;29;20256;-78
2023/09/20 02:59:59;;;;;;;6.35;2.55;;;;;16.40;100344.00;;;;9975638;29;20230;-78
2023/09/20 03:05:03;;;;;;;9.85;3.05;;;;;16.30;100346.00;;;;9978234;29;20221;-77
2023/09/20 03:10:06;;;;;;;8.52;2.75;;;;;16.20;100336.00;;;;9991776;29;20282;-77
2023/09/20 03:15:10;;;;;;;5.60;2.38;;;;;16.10;100321.00;;;;9985637;29;20217;-78
2023/09/20 03:20:16;;;;;;;5.53;2.88;;;;;16.10;100315.00;;;;10002035;29;20237;-79
2023/09/20 03:25:23;;;;;;;5.28;2.60;;;;;16.00;100316.00;;;;9958911;29;20252;-78
2023/09/20 03:30:28;;;;;;;6.35;2.50;;;;;16.00;100321.00;;;;10009041;29;20221;-85
2023/09/20 03:35:30;;;;;;;6.65;2.60;;;;;15.90;100313.00;;;;10008509;29;20302;-88
2023/09/20 03:40:33;;;;;;;6.38;2.60;;;;;15.90;100305.00;;;;10019208;29;20264;-87
2023/09/20 03:45:38;;;;;;;4.63;2.17;;;;;15.90;100322.00;;;;10017173;29;20201;-88
2023/09/20 03:50:43;;;;;;;7.47;3.17;;;;;15.90;100305.00;;;;10013175;29;20213;-83
2023/09/20 03:55:48;;;;;;;5.32;2.55;;;;;15.90;100298.00;;;;9997242;29;20221;-86
2023/09/20 04:00:51;;;;;;;11.25;3.53;;;;;15.90;100297.00;;;;10007285;29;20218;-84
2023/09/20 04:05:56;;;;;;;5.40;2.20;;;;;15.90;100304.00;;;;10003361;29;20211;-87
2023/09/20 04:10:59;;;;;;;4.90;2.00;;;;;15.90;100302.00;;;;10008672;29;20216;-85
2023/09/20 04:16:05;;;;;;;4.18;2.15;;;;;15.90;100288.00;;;;10011221;29;20305;-86
2023/09/20 04:21:08;;;;;;;6.38;2.40;;;;;15.90;100275.00;;;;9995957;29;20629;-86
2023/09/20 04:32:18;;;;;;;5.80;2.63;;;;;15.80;100260.00;;;;10135551;23;20315;-92
2023/09/20 04:37:22;;;;;;;6.28;2.17;;;;;15.80;100246.00;;;;10029065;29;20297;-87
2023/09/20 04:42:26;;;;;;;9.32;2.47;;;;;15.80;100239.00;;;;9966989;29;20642;-84
2023/09/20 04:47:30;;;;;;;5.78;2.50;;;;;15.80;100240.00;;;;10002227;29;20217;-85
2023/09/20 04:52:34;;;;;;;6.07;2.47;;;;;15.80;100245.00;;;;9992726;29;20228;-84
2023/09/20 04:57:36;;;;;;;7.60;2.67;;;;;15.80;100230.00;;;;9987216;29;20271;-85
2023/09/20 05:02:38;;;;;;;6.05;2.75;;;;;15.80;100232.00;;;;9991174;29;20214;-84
2023/09/20 05:07:41;;;;;;;5.38;2.65;;;;;15.80;100232.00;;;;9994348;29;20221;-85
2023/09/20 05:12:44;;;;;;;5.90;2.72;;;;;15.80;100228.00;;;;9997710;29;20220;-83
2023/09/20 05:17:49;;;;;;;5.30;2.55;;;;;15.80;100235.00;;;;9994576;29;20229;-84
2023/09/20 05:22:51;;;;;;;8.00;2.65;;;;;15.80;100244.00;;;;10000057;29;20695;-85
2023/09/20 05:27:54;;;;;;;8.80;2.20;;;;;15.80;100237.00;;;;9984873;29;20204;-84
2023/09/20 05:32:58;;;;;;;7.82;2.40;;;;;15.80;100243.00;;;;9997137;29;20237;-84
2023/09/20 05:38:02;;;;;;;5.45;2.35;;;;;15.80;100229.00;;;;10008078;29;20233;-84
2023/09/20 05:43:06;;;;;;;7.82;2.47;;;;;15.90;100231.00;;;;9996463;29;20221;-84
2023/09/20 05:48:12;;;;;;;7.13;2.63;;;;;15.90;100230.00;;;;9976207;29;20210;-82
2023/09/20 05:53:38;;;;;;;7.32;2.63;;;;;16.00;100235.00;;;;10124399;23;20242;-90
2023/09/20 05:58:44;;;;;;;9.60;2.47;;;;;16.00;100231.00;;;;10071906;29;20225;-90
2023/09/20 06:03:46;;;;;;;5.50;2.78;;;;;16.10;100240.00;;;;10057271;29;20242;-89
2023/09/20 06:08:49;;;;;;;5.80;2.55;;;;;16.20;100228.00;;;;10064903;29;20267;-90
2023/09/20 06:13:51;;;;;;;7.53;2.47;;;;;16.40;100223.00;;;;10097177;29;20260;-90
2023/09/20 06:18:53;;;;;;;4.15;2.50;;;;;16.80;100231.00;;;;10066559;29;20240;-88
2023/09/20 06:24:11;;;;;;;4.38;2.63;;;;;17.20;100229.00;;;;10174169;23;20432;-90
2023/09/20 06:29:16;;;;;;;6.38;2.70;;;;;17.60;100225.00;;;;10166275;23;21388;-92
2023/09/20 06:34:18;;;;;;;4.38;2.17;;;;;17.90;100220.00;;;;10239510;24;20249;-89
2023/09/20 06:39:20;;;;;;;7.15;2.60;;;;;18.30;100212.00;;;;10136909;29;20220;-89
2023/09/20 06:44:23;;;;;;;6.38;2.40;;;;;18.60;100200.00;;;;10116411;29;20188;-89
2023/09/20 06:49:28;;;;;;;6.07;2.20;;;;;18.80;100207.00;;;;10133500;29;20210;-90
2023/09/20 06:54:38;;;;;;;8.82;3.03;;;;;18.90;100196.00;;;;10158504;29;20211;-88
2023/09/20 06:59:42;;;;;;;6.43;2.15;;;;;19.20;100202.00;;;;10139332;29;20447;-89
2023/09/20 07:04:48;;;;;;;5.15;2.83;;;;;19.50;100204.00;;;;10134813;29;20228;-91
2023/09/20 07:09:50;;;;;;;4.00;1.95;;;;;19.90;100210.00;;;;10113658;29;20234;-91
2023/09/20 07:14:54;;;;;;;4.30;2.45;;;;;20.20;100193.00;;;;10132969;29;20195;-89
2023/09/20 07:19:57;;;;;;;4.40;2.40;;;;;20.30;100204.00;;;;10122687;29;20230;-90
2023/09/20 07:25:04;;;;;;;6.72;2.75;;;;;20.20;100207.00;;;;10136927;29;20204;-91
2023/09/20 07:30:18;;;;;;;6.18;3.05;;;;;20.10;100211.00;;;;10132136;29;20211;-89
2023/09/20 07:35:26;;;;;;;6.55;2.60;;;;;20.00;100207.00;;;;10135560;29;20666;-90
2023/09/20 07:40:35;;;;;;;3.53;2.25;;;;;20.10;100200.00;;;;10125607;29;20232;-89
2023/09/20 07:45:42;;;;;;;5.55;2.40;;;;;20.20;100223.00;;;;10110101;29;20203;-90
2023/09/20 07:50:51;;;;;;;5.53;2.40;;;;;20.20;100206.00;;;;10143251;29;20195;-89
2023/09/20 07:55:56;;;;;;;6.63;2.22;;;;;20.50;100219.00;;;;10136354;29;20227;-89
2023/09/20 08:01:12;;;;;;;3.28;1.67;;;;;20.80;100227.00;;;;10147425;29;20231;-90
2023/09/20 08:06:15;;;;;;;3.97;2.08;;;;;20.80;100220.00;;;;10108376;29;20235;-89
2023/09/20 08:11:18;;;;;;;6.75;2.08;;;;;20.90;100212.00;;;;10090497;29;20276;-92
2023/09/20 08:16:24;;;;;;;6.97;1.95;;;;;21.10;100228.00;;;;10107432;29;20219;-93
2023/09/20 08:21:43;;;;;;;6.85;1.90;;;;;22.00;100228.00;;;;10111247;24;20246;-85
2023/09/20 09:04:39;;;;;;;3.20;1.92;;;;;22.90;100238.00;;;;10120397;29;20274;-85
2023/09/20 09:09:41;;;;;;;3.15;1.60;;;;;22.80;100229.00;;;;10090074;29;20217;-83
2023/09/20 09:14:47;;;;;;;6.60;2.45;;;;;22.60;100231.00;;;;10098625;29;20263;-82
2023/09/20 09:19:52;;;;;;;4.70;1.83;;;;;22.20;100230.00;;;;10089824;29;20223;-81
2023/09/20 09:24:54;;;;;;;4.60;1.58;;;;;21.90;100222.00;;;;10091832;29;20231;-82
2023/09/20 09:29:57;;;;;;;3.72;1.50;;;;;21.70;100231.00;;;;10072347;29;20299;-85
2023/09/20 09:35:05;;;;;;;7.05;1.73;;;;;21.70;100215.00;;;;10094843;29;20778;-84
2023/09/20 09:40:14;;;;;;;5.07;1.30;;;;;21.90;100215.00;;;;10118520;29;20682;-82
2023/09/20 09:45:33;;;;;;;3.22;1.55;;;;;22.30;100217.00;;;;10086604;29;20273;-83
2023/09/20 09:50:40;;;;;;;2.20;1.48;;;;;22.40;100199.00;;;;10095619;29;20208;-83
2023/09/20 09:55:44;;;;;;;3.22;1.50;;;;;22.40;100209.00;;;;10082208;29;20275;-83
2023/09/20 10:00:50;;;;;;;3.38;1.60;;;;;22.40;100209.00;;;;10063025;29;20248;-82
2023/09/20 10:06:00;;;;;;;4.70;1.50;;;;;22.60;100199.00;;;;10044091;29;20299;-82
2023/09/20 10:11:05;;;;;;;9.20;1.80;;;;;22.90;100204.00;;;;10053406;29;20242;-82
2023/09/20 10:16:10;;;;;;;6.35;1.58;;;;;22.90;100211.00;;;;10064259;29;20567;-84
2023/09/20 10:21:17;;;;;;;2.67;1.10;;;;;23.00;100206.00;;;;10033636;29;20231;-84
2023/09/20 10:26:19;;;;;;;3.22;1.27;;;;;23.00;100200.00;;;;10060067;29;20284;-84
2023/09/20 10:31:21;;;;;;;1.92;1.40;;;;;23.20;100193.00;;;;10062380;29;20254;-86
2023/09/20 10:36:27;;;;;;;5.13;1.70;;;;;23.60;100178.00;;;;10076260;29;20208;-89
2023/09/20 10:41:39;;;;;;;3.20;1.30;;;;;23.50;100178.00;;;;10047775;29;20233;-85
2023/09/20 10:46:43;;;;;;;3.88;1.02;;;;;23.60;100173.00;;;;10057512;29;20236;-87
2023/09/20 10:51:52;;;;;;;3.80;1.17;;;;;24.00;100168.00;;;;10052936;29;20226;-86
2023/09/20 10:57:02;;;;;;;2.90;1.52;;;;;24.20;100167.00;;;;10061642;29;20216;-85
2023/09/20 11:02:16;;;;;;;3.40;1.20;;;;;24.50;100160.00;;;;10038432;29;20351;-86
2023/09/20 11:07:18;;;;;;;4.70;1.40;;;;;24.70;100160.00;;;;10063588;29;20243;-86
2023/09/20 11:12:20;;;;;;;3.72;1.40;;;;;24.60;100156.00;;;;10059069;29;20574;-85
2023/09/20 11:17:23;;;;;;;3.47;1.23;;;;;24.20;100162.00;;;;10058847;29;20217;-84
2023/09/20 11:22:25;;;;;;;3.67;1.40;;;;;23.70;100158.00;;;;10037532;29;20224;-85
2023/09/20 11:27:28;;;;;;;2.95;1.05;;;;;22.90;100163.00;;;;10067229;29;20251;-86
2023/09/20 11:32:30;;;;;;;2.00;1.17;;;;;22.70;100152.00;;;;10075210;29;20216;-84
2023/09/20 11:37:35;;;;;;;3.97;1.35;;;;;22.70;100147.00;;;;10046678;29;20224;-86
2023/09/20 11:42:37;;;;;;;4.90;1.30;;;;;22.80;100147.00;;;;10081676;29;20686;-86
2023/09/20 11:47:43;;;;;;;3.22;1.60;;;;;22.60;100146.00;;;;10060686;29;20236;-86
2023/09/20 11:52:47;;;;;;;2.97;1.20;;;;;22.60;100130.00;;;;10076938;29;20259;-86
2023/09/20 11:57:49;;;;;;;5.25;1.55;;;;;22.70;100119.00;;;;10053707;29;20256;-89
2023/09/20 12:02:53;;;;;;;2.45;1.40;;;;;22.80;100121.00;;;;10075584;29;20223;-86
2023/09/20 12:07:58;;;;;;;3.85;0.90;;;;;23.10;100117.00;;;;10110000;29;20237;-86
2023/09/20 12:13:00;;;;;;;1.88;1.40;;;;;23.30;100108.00;;;;10089935;29;20478;-87
2023/09/20 12:18:03;;;;;;;2.67;1.38;;;;;23.10;100095.00;;;;10073454;29;20709;-84
2023/09/20 12:23:06;;;;;;;2.22;1.17;;;;;23.20;100086.00;;;;10062777;29;20275;-84
2023/09/20 12:28:08;;;;;;;2.60;1.10;;;;;23.20;100086.00;;;;10084994;29;20208;-85
2023/09/20 12:33:11;;;;;;;2.97;1.15;;;;;23.40;100076.00;;;;10081941;29;20288;-84
2023/09/20 12:38:13;;;;;;;2.72;1.27;;;;;23.50;100065.00;;;;10062571;29;20718;-86
2023/09/20 12:43:15;;;;;;;4.10;1.38;;;;;23.60;100049.00;;;;10042885;29;20303;-84
2023/09/20 12:48:18;;;;;;;3.80;1.25;;;;;24.00;100038.00;;;;10069649;29;20215;-87
2023/09/20 12:53:20;;;;;;;3.13;1.58;;;;;23.80;100038.00;;;;10061301;29;20235;-87
2023/09/20 12:58:22;;;;;;;1.77;1.27;;;;;23.70;100037.00;;;;10074303;29;20239;-89
2023/09/20 13:03:28;;;;;;;1.73;1.10;;;;;23.80;100020.00;;;;10081562;29;20219;-88
2023/09/20 13:08:31;;;;;;;2.45;1.30;;;;;23.90;100011.00;;;;10049798;29;20243;-84
2023/09/20 13:13:38;;;;;;;2.58;1.20;;;;;23.90;100006.00;;;;10064096;29;20208;-86
2023/09/20 13:18:40;;;;;;;4.78;1.30;;;;;24.00;99994.00;;;;10032994;29;20256;-90
2023/09/20 13:23:42;;;;;;;3.90;1.58;;;;;24.00;99998.00;;;;10092763;29;20224;-86
2023/09/20 13:28:44;;;;;;;3.33;1.52;;;;;24.10;99979.00;;;;10079267;29;20225;-85
2023/09/20 13:33:50;;;;;;;1.95;1.40;;;;;24.10;99966.00;;;;10076507;29;20207;-88
2023/09/20 13:38:53;;;;;;;4.03;1.65;;;;;24.30;99966.00;;;;10070168;29;20264;-89
2023/09/20 13:43:57;;;;;;;5.93;1.40;;;;;24.30;99963.00;;;;10111139;29;20219;-88
2023/09/20 13:48:58;;;;;;;2.63;1.38;;;;;24.50;99958.00;;;;10044938;29;20213;-87
2023/09/20 13:54:01;;;;;;;4.45;1.55;;;;;24.80;99945.00;;;;10046138;29;20218;-87
2023/09/20 13:59:03;;;;;;;4.60;1.63;;;;;24.70;99949.00;;;;8564177;23;20224;-87
2023/09/20 14:04:07;;;;;;;2.55;1.70;;;;;24.80;99955.00;;;;10070239;29;20217;-87
2023/09/20 14:09:13;;;;;;;2.80;1.90;;;;;25.00;99949.00;;;;10076141;24;20922;-87
2023/09/20 14:14:17;;;;;;;2.38;1.80;;;;;24.70;99949.00;;;;10071639;29;20239;-87
2023/09/20 14:19:22;;;;;;;6.03;1.90;;;;;24.40;99957.00;;;;10025959;29;20315;-87
2023/09/20 14:24:25;;;;;;;5.03;2.03;;;;;24.20;99961.00;;;;10053111;29;20216;-88
2023/09/20 14:29:28;;;;;;;4.82;2.38;;;;;23.80;99956.00;;;;10037089;29;20296;-86
2023/09/20 14:34:33;;;;;;;3.97;1.90;;;;;23.70;99951.00;;;;10022441;29;20217;-87
2023/09/20 14:39:35;;;;;;;3.75;2.22;;;;;23.70;99955.00;;;;10018871;29;20250;-87
2023/09/20 14:44:36;;;;;;;4.30;2.00;;;;;23.70;99948.00;;;;10035054;29;20280;-87
2023/09/20 14:49:40;;;;;;;4.57;1.85;;;;;23.70;99958.00;;;;10043287;29;20217;-86
2023/09/20 14:54:42;;;;;;;4.68;1.80;;;;;23.60;99946.00;;;;10008042;29;20220;-85
2023/09/20 14:59:45;;;;;;;5.68;2.22;;;;;23.50;99946.00;;;;10031249;29;20268;-88
2023/09/20 15:04:47;;;;;;;7.45;2.17;;;;;23.40;99940.00;;;;10047618;29;20217;-85
2023/09/20 15:09:49;;;;;;;3.70;2.03;;;;;23.30;99928.00;;;;10051997;29;20205;-85
2023/09/20 15:14:51;;;;;;;2.20;1.63;;;;;23.10;99911.00;;;;10046367;29;20220;-84
2023/09/20 15:19:53;;;;;;;3.63;1.90;;;;;23.00;99908.00;;;;10030260;29;20676;-86
2023/09/20 15:24:56;;;;;;;6.25;2.10;;;;;23.00;99899.00;;;;10043487;29;20215;-86
2023/09/20 15:29:58;;;;;;;5.22;1.80;;;;;22.90;99891.00;;;;10067093;29;20220;-85
2023/09/20 15:35:01;;;;;;;3.03;1.77;;;;;22.80;99899.00;;;;10041104;29;20280;-87
2023/09/20 15:40:03;;;;;;;2.67;1.50;;;;;22.70;99892.00;;;;10043449;29;20624;-88
2023/09/20 15:45:06;;;;;;;4.63;2.05;;;;;22.60;99886.00;;;;10021604;29;20213;-88
2023/09/20 15:50:10;;;;;;;3.45;1.73;;;;;22.60;99877.00;;;;10015872;29;20270;-89
2023/09/20 15:55:14;;;;;;;4.70;1.60;;;;;22.40;99864.00;;;;10010306;29;20273;-89
2023/09/20 16:00:18;;;;;;;3.55;1.33;;;;;22.30;99852.00;;;;10034595;29;20663;-85
2023/09/20 16:05:20;;;;;;;3.00;1.60;;;;;22.20;99836.00;;;;10064306;23;20249;-91
2023/09/20 16:10:24;;;;;;;5.25;1.73;;;;;22.30;99828.00;;;;10110338;29;20322;-92
2023/09/20 16:15:42;;;;;;;4.40;1.70;;;;;22.50;99810.00;;;;10118581;29;20264;-91
2023/09/20 16:20:44;;;;;;;4.40;1.58;;;;;22.40;99785.00;;;;10090911;29;20230;-89
2023/09/20 16:25:47;;;;;;;4.72;1.85;;;;;22.30;99790.00;;;;10101312;29;20221;-91
2023/09/20 16:30:50;;;;;;;1.95;1.63;;;;;22.20;99792.00;;;;10109629;29;20216;-90
2023/09/20 16:35:52;;;;;;;5.60;2.03;;;;;22.00;99782.00;;;;10086163;29;20311;-86
2023/09/20 16:40:55;;;;;;;2.38;1.55;;;;;21.90;99787.00;;;;10102257;29;20227;-91
2023/09/20 16:45:57;;;;;;;3.58;1.65;;;;;21.90;99776.00;;;;10113018;29;20211;-91
2023/09/20 16:51:01;;;;;;;3.17;1.52;;;;;21.80;99780.00;;;;10105793;29;20216;-89
2023/09/20 16:56:08;;;;;;;3.42;1.85;;;;;21.70;99783.00;;;;10105057;29;20246;-89
2023/09/20 17:01:17;;;;;;;4.63;1.80;;;;;21.50;99774.00;;;;10101703;29;20228;-89
2023/09/20 17:06:20;;;;;;;2.53;1.50;;;;;21.40;99775.00;;;;10115442;29;20212;-90
2023/09/20 17:11:23;;;;;;;3.08;1.60;;;;;21.30;99769.00;;;;10128670;29;20298;-89
2023/09/20 17:16:26;;;;;;;2.78;1.83;;;;;21.30;99763.00;;;;10120258;29;20216;-89
2023/09/20 17:21:28;;;;;;;3.20;1.73;;;;;21.20;99764.00;;;;10120838;29;20239;-90
2023/09/20 17:26:31;;;;;;;4.05;1.70;;;;;21.10;99762.00;;;;10098149;29;20211;-91
2023/09/20 17:31:36;;;;;;;5.30;1.75;;;;;21.00;99757.00;;;;10113128;29;20203;-88
2023/09/20 17:36:38;;;;;;;1.77;1.30;;;;;20.90;99751.00;;;;10090075;29;21288;-89
2023/09/20 17:41:41;;;;;;;2.15;1.80;;;;;20.80;99753.00;;;;10098794;29;20228;-90
2023/09/20 17:46:44;;;;;;;6.25;1.70;;;;;20.70;99736.00;;;;10089877;29;20237;-88
2023/09/20 17:51:46;;;;;;;6.10;1.77;;;;;20.50;99739.00;;;;10113953;29;20223;-89
2023/09/20 17:56:50;;;;;;;5.97;1.77;;;;;20.50;99733.00;;;;10121529;29;20192;-90
2023/09/20 18:01:53;;;;;;;8.05;1.90;;;;;20.40;99746.00;;;;10116970;29;20244;-90
2023/09/20 18:12:19;;;;;;;2.80;1.80;;;;;20.20;99742.00;;;;10057303;29;20225;-89
2023/09/20 18:17:22;;;;;;;2.58;1.67;;;;;20.10;99739.00;;;;10078731;29;20316;-91
2023/09/20 18:22:33;;;;;;;2.53;1.58;;;;;20.10;99738.00;;;;10061317;29;20225;-89
2023/09/20 18:27:44;;;;;;;5.97;2.00;;;;;20.00;99731.00;;;;10071298;29;20229;-89
2023/09/20 18:32:51;;;;;;;5.50;1.83;;;;;20.00;99731.00;;;;10083846;29;20219;-90
2023/09/20 18:37:53;;;;;;;3.17;1.98;;;;;20.00;99746.00;;;;10042496;29;20648;-89
2023/09/20 18:42:59;;;;;;;4.50;1.90;;;;;19.90;99739.00;;;;10053307;29;20254;-89
2023/09/20 18:48:03;;;;;;;3.92;2.10;;;;;19.80;99749.00;;;;10072902;29;21050;-90
2023/09/20 18:53:06;;;;;;;3.88;2.00;;;;;19.70;99744.00;;;;10062780;23;20248;-77
2023/09/20 18:58:09;;;;;;;4.25;2.30;;;;;19.60;99732.00;;;;10069237;29;20216;-79
2023/09/20 19:03:15;;;;;;;3.58;1.75;;;;;19.60;99736.00;;;;10065553;29;20255;-83
2023/09/20 19:08:18;;;;;;;2.70;2.03;;;;;19.60;99728.00;;;;10051434;29;20693;-80
2023/09/20 19:13:23;;;;;;;4.18;2.03;;;;;19.60;99737.00;;;;10042036;29;20212;-77
2023/09/20 19:18:26;;;;;;;4.45;2.58;;;;;19.50;99742.00;;;;10022468;29;20223;-78
2023/09/20 19:23:32;;;;;;;6.15;2.08;;;;;19.50;99746.00;;;;10021372;29;20239;-77
2023/09/20 19:28:34;;;;;;;5.30;1.75;;;;;19.60;99732.00;;;;10047071;29;20216;-79
2023/09/20 19:33:36;;;;;;;5.65;2.25;;;;;19.60;99724.00;;;;10063643;29;20211;-78
2023/09/20 19:38:45;;;;;;;4.75;2.22;;;;;19.60;99707.00;;;;10043594;29;20295;-77
2023/09/20 19:43:48;;;;;;;4.18;2.10;;;;;19.50;99694.00;;;;10066660;29;21938;-79
2023/09/20 19:54:24;;;;;;;7.22;2.97;;;;;19.30;99694.00;;;;10106915;29;20223;-89
2023/09/20 19:59:29;;;;;;;8.63;2.28;;;;;19.20;99683.00;;;;10035165;23;21049;-84
2023/09/20 20:04:32;;;;;;;4.40;2.72;;;;;19.20;99665.00;;;;9993308;29;20297;-85
2023/09/20 20:10:27;;;;;;;5.07;3.05;;;;;19.20;99654.00;;;;9975008;29;20572;-86
2023/09/20 20:15:33;;;;;;;4.40;2.38;;;;;19.10;99639.00;;;;10007390;29;20221;-85
2023/09/20 20:20:37;;;;;;;4.80;2.50;;;;;19.10;99631.00;;;;9969198;29;20657;-84
2023/09/20 20:25:40;;;;;;;2.60;2.25;;;;;19.00;99631.00;;;;9997061;29;20228;-84
2023/09/20 20:30:43;;;;;;;5.97;2.30;;;;;19.00;99629.00;;;;10006539;29;20308;-83
2023/09/20 20:35:45;;;;;;;6.55;2.33;;;;;19.00;99629.00;;;;9984337;29;20213;-82
2023/09/20 20:40:48;;;;;;;5.03;2.05;;;;;19.10;99614.00;;;;9992736;29;20237;-82
2023/09/20 20:45:49;;;;;;;5.30;2.45;;;;;19.10;99613.00;;;;9982826;29;20213;-84
2023/09/20 20:50:52;;;;;;;6.65;2.10;;;;;19.10;99612.00;;;;9990518;29;20209;-84
2023/09/20 20:55:55;;;;;;;4.20;2.35;;;;;19.00;99597.00;;;;10008871;29;20322;-86
2023/09/20 21:00:57;;;;;;;3.28;2.25;;;;;19.00;99591.00;;;;9988845;29;20229;-86
2023/09/20 21:06:04;;;;;;;7.78;2.20;;;;;19.00;99581.00;;;;9986825;29;20209;-85
2023/09/20 21:11:07;;;;;;;4.43;1.92;;;;;19.00;99574.00;;;;9970565;29;20297;-83
2023/09/20 21:16:10;;;;;;;3.20;2.03;;;;;19.00;99567.00;;;;10029268;29;20235;-83
2023/09/20 21:21:13;;;;;;;7.95;3.40;;;;;18.90;99555.00;;;;9983772;29;20779;-84
2023/09/20 21:26:15;;;;;;;4.57;2.47;;;;;18.90;99554.00;;;;10012714;29;20263;-85
2023/09/20 21:31:17;;;;;;;6.95;2.67;;;;;18.90;99555.00;;;;9999378;29;20213;-88
2023/09/20 21:36:20;;;;;;;5.93;3.00;;;;;18.80;99550.00;;;;10000610;29;20233;-85
2023/09/20 21:41:22;;;;;;;3.10;2.13;;;;;18.80;99538.00;;;;10007079;29;20233;-86
2023/09/20 21:46:24;;;;;;;6.38;2.70;;;;;18.90;99544.00;;;;9982049;29;20216;-87
2023/09/20 21:51:27;;;;;;;6.03;2.00;;;;;18.90;99533.00;;;;9993997;29;20217;-87
2023/09/20 21:56:29;;;;;;;5.75;2.03;;;;;18.90;99530.00;;;;10012608;29;20222;-85
2023/09/20 22:01:32;;;;;;;4.40;2.35;;;;;18.90;99529.00;;;;10013082;29;20747;-84
2023/09/20 22:06:33;;;;;;;4.30;2.28;;;;;18.80;99515.00;;;;9994924;29;20225;-84
2023/09/20 22:11:35;;;;;;;8.80;2.40;;;;;18.90;99518.00;;;;10061117;23;20236;-89
2023/09/20 22:16:39;;;;;;;5.22;2.20;;;;;18.90;99495.00;;;;10055788;29;20208;-89
2023/09/20 22:21:48;;;;;;;5.20;2.42;;;;;19.00;99489.00;;;;10063595;29;20335;-91
2023/09/20 22:26:51;;;;;;;5.90;2.22;;;;;19.00;99490.00;;;;10065103;29;20219;-94
2023/09/20 22:31:56;;;;;;;4.10;2.17;;;;;19.10;99492.00;;;;10074977;23;20245;-90
2023/09/20 22:36:58;;;;;;;3.55;2.08;;;;;19.10;99484.00;;;;10060270;29;20209;-89
2023/09/20 22:42:01;;;;;;;4.78;2.10;;;;;19.10;99478.00;;;;10068552;29;20228;-90
2023/09/20 22:47:04;;;;;;;5.63;1.98;;;;;19.20;99473.00;;;;10040988;29;20228;-90
2023/09/20 22:52:09;;;;;;;7.30;2.20;;;;;19.20;99471.00;;;;10050842;29;20219;-89
2023/09/20 22:57:14;;;;;;;3.55;2.03;;;;;19.30;99459.00;;;;10061916;29;20213;-91
2023/09/20 23:02:17;;;;;;;4.78;2.03;;;;;19.30;99467.00;;;;10051543;29;20233;-86
2023/09/20 23:07:20;;;;;;;5.60;2.15;;;;;19.30;99461.00;;;;10062900;29;20209;-90
2023/09/20 23:12:22;;;;;;;2.55;2.00;;;;;19.30;99462.00;;;;10055108;29;20268;-89
2023/09/20 23:17:25;;;;;;;5.57;2.10;;;;;19.30;99458.00;;;;10038579;29;20247;-89
2023/09/20 23:22:28;;;;;;;2.72;2.00;;;;;19.20;99446.00;;;;10051943;29;20262;-93
2023/09/20 23:27:32;;;;;;;4.45;2.05;;;;;19.30;99442.00;;;;10055731;29;20219;-91
2023/09/20 23:32:35;;;;;;;4.15;1.75;;;;;19.30;99440.00;;;;10074869;29;20219;-90
2023/09/20 23:37:38;;;;;;;4.07;1.67;;;;;19.30;99440.00;;;;10088447;29;20216;-91
2023/09/20 23:42:42;;;;;;;3.95;1.65;;;;;19.40;99426.00;;;;10053443;29;20220;-91
2023/09/20 23:47:44;;;;;;;5.60;2.40;;;;;19.40;99419.00;;;;10039015;29;20235;-92
2023/09/20 23:52:48;;;;;;;3.80;2.13;;;;;19.50;99420.00;;;;10027208;29;20197;-88
2023/09/20 23:57:50;;;;;;;2.60;1.83;;;;;19.50;99413.00;;;;10049288;29;20382;-89
